sensor_id;sensor_type;location;lat;lon;timestamp;P1;durP1;ratioP1;P2;durP2;ratioP2
73675;SDS011;61975;48.660;10.164;2022-08-19T00:01:32;15.88;;;11.80;;
73675;SDS011;61975;48.660;10.164;2022-08-19T00:04:00;16.47;;;11.80;;
73675;SDS011;61975;48.660;10.164;2022-08-19T00:06:28;15.32;;;11.75;;
73675;SDS011;61975;48.660;10.164;2022-08-19T00:08:54;15.45;;;12.15;;
73675;SDS011;61975;48.660;10.164;2022-08-19T00:11:20;16.55;;;12.18;;
73675;SDS011;61975;48.660;10.164;2022-08-19T00:13:46;14.88;;;11.93;;
73675;SDS011;61975;48.660;10.164;2022-08-19T00:16:14;15.53;;;12.40;;
73675;SDS011;61975;48.660;10.164;2022-08-19T00:18:40;16.98;;;12.82;;
73675;SDS011;61975;48.660;10.164;2022-08-19T00:21:05;18.13;;;12.43;;
73675;SDS011;61975;48.660;10.164;2022-08-19T00:23:33;16.77;;;12.48;;
73675;SDS011;61975;48.660;10.164;2022-08-19T00:26:01;16.80;;;11.95;;
73675;SDS011;61975;48.660;10.164;2022-08-19T00:28:28;17.10;;;12.48;;
73675;SDS011;61975;48.660;10.164;2022-08-19T00:30:53;16.47;;;12.43;;
73675;SDS011;61975;48.660;10.164;2022-08-19T00:33:20;16.33;;;12.60;;
73675;SDS011;61975;48.660;10.164;2022-08-19T00:35:46;18.13;;;12.90;;
73675;SDS011;61975;48.660;10.164;2022-08-19T00:38:11;18.25;;;12.88;;
73675;SDS011;61975;48.660;10.164;2022-08-19T00:40:37;16.00;;;12.10;;
73675;SDS011;61975;48.660;10.164;2022-08-19T00:43:07;16.63;;;12.80;;
73675;SDS011;61975;48.660;10.164;2022-08-19T00:45:38;17.60;;;13.10;;
73675;SDS011;61975;48.660;10.164;2022-08-19T00:48:06;16.42;;;12.07;;
73675;SDS011;61975;48.660;10.164;2022-08-19T00:50:31;16.53;;;12.67;;
73675;SDS011;61975;48.660;10.164;2022-08-19T00:52:58;18.30;;;13.13;;
73675;SDS011;61975;48.660;10.164;2022-08-19T00:55:25;17.13;;;12.73;;
73675;SDS011;61975;48.660;10.164;2022-08-19T00:57:58;18.50;;;13.63;;
73675;SDS011;61975;48.660;10.164;2022-08-19T01:00:27;17.83;;;13.63;;
73675;SDS011;61975;48.660;10.164;2022-08-19T01:02:53;18.63;;;13.25;;
73675;SDS011;61975;48.660;10.164;2022-08-19T01:05:20;17.55;;;13.25;;
73675;SDS011;61975;48.660;10.164;2022-08-19T01:07:48;18.45;;;13.40;;
73675;SDS011;61975;48.660;10.164;2022-08-19T01:10:17;18.58;;;13.18;;
73675;SDS011;61975;48.660;10.164;2022-08-19T01:12:45;16.67;;;13.17;;
73675;SDS011;61975;48.660;10.164;2022-08-19T01:15:14;17.13;;;13.05;;
73675;SDS011;61975;48.660;10.164;2022-08-19T01:17:42;18.75;;;14.13;;
73675;SDS011;61975;48.660;10.164;2022-08-19T01:20:11;18.50;;;13.77;;
73675;SDS011;61975;48.660;10.164;2022-08-19T01:22:47;19.55;;;13.55;;
73675;SDS011;61975;48.660;10.164;2022-08-19T01:25:31;17.47;;;13.17;;
73675;SDS011;61975;48.660;10.164;2022-08-19T01:28:18;18.65;;;13.48;;
73675;SDS011;61975;48.660;10.164;2022-08-19T01:30:46;20.05;;;14.20;;
73675;SDS011;61975;48.660;10.164;2022-08-19T01:33:12;18.57;;;14.10;;
73675;SDS011;61975;48.660;10.164;2022-08-19T01:35:38;19.45;;;14.32;;
73675;SDS011;61975;48.660;10.164;2022-08-19T01:38:05;19.30;;;14.75;;
73675;SDS011;61975;48.660;10.164;2022-08-19T01:40:34;20.60;;;14.93;;
73675;SDS011;61975;48.660;10.164;2022-08-19T01:43:02;20.30;;;15.02;;
73675;SDS011;61975;48.660;10.164;2022-08-19T01:45:28;19.88;;;14.75;;
73675;SDS011;61975;48.660;10.164;2022-08-19T01:47:56;21.58;;;15.60;;
73675;SDS011;61975;48.660;10.164;2022-08-19T01:50:22;22.00;;;15.68;;
73675;SDS011;61975;48.660;10.164;2022-08-19T01:52:47;22.07;;;16.10;;
73675;SDS011;61975;48.660;10.164;2022-08-19T01:55:15;21.20;;;15.70;;
73675;SDS011;61975;48.660;10.164;2022-08-19T01:57:44;24.45;;;17.08;;
73675;SDS011;61975;48.660;10.164;2022-08-19T02:00:15;24.02;;;17.20;;
73675;SDS011;61975;48.660;10.164;2022-08-19T02:02:44;27.33;;;17.23;;
73675;SDS011;61975;48.660;10.164;2022-08-19T02:05:10;26.07;;;17.37;;
73675;SDS011;61975;48.660;10.164;2022-08-19T02:07:38;25.08;;;17.30;;
73675;SDS011;61975;48.660;10.164;2022-08-19T02:10:05;25.33;;;17.47;;
73675;SDS011;61975;48.660;10.164;2022-08-19T02:12:32;24.65;;;17.27;;
73675;SDS011;61975;48.660;10.164;2022-08-19T02:14:58;24.70;;;17.63;;
73675;SDS011;61975;48.660;10.164;2022-08-19T02:17:24;25.63;;;17.50;;
73675;SDS011;61975;48.660;10.164;2022-08-19T02:19:50;26.63;;;17.38;;
73675;SDS011;61975;48.660;10.164;2022-08-19T02:22:15;24.10;;;17.13;;
73675;SDS011;61975;48.660;10.164;2022-08-19T02:24:41;27.00;;;18.30;;
73675;SDS011;61975;48.660;10.164;2022-08-19T02:27:06;26.27;;;18.13;;
73675;SDS011;61975;48.660;10.164;2022-08-19T02:29:31;24.27;;;17.85;;
73675;SDS011;61975;48.660;10.164;2022-08-19T02:31:57;26.17;;;18.53;;
73675;SDS011;61975;48.660;10.164;2022-08-19T02:34:23;24.50;;;18.23;;
73675;SDS011;61975;48.660;10.164;2022-08-19T02:36:49;26.83;;;18.17;;
73675;SDS011;61975;48.660;10.164;2022-08-19T02:39:15;26.30;;;17.50;;
73675;SDS011;61975;48.660;10.164;2022-08-19T02:41:40;25.53;;;18.00;;
73675;SDS011;61975;48.660;10.164;2022-08-19T02:44:06;27.60;;;18.40;;
73675;SDS011;61975;48.660;10.164;2022-08-19T02:46:32;27.43;;;18.63;;
73675;SDS011;61975;48.660;10.164;2022-08-19T02:49:05;26.25;;;18.13;;
73675;SDS011;61975;48.660;10.164;2022-08-19T02:51:33;26.55;;;18.85;;
73675;SDS011;61975;48.660;10.164;2022-08-19T02:54:01;27.42;;;18.23;;
73675;SDS011;61975;48.660;10.164;2022-08-19T02:56:28;26.38;;;18.35;;
73675;SDS011;61975;48.660;10.164;2022-08-19T02:58:55;26.87;;;18.47;;
73675;SDS011;61975;48.660;10.164;2022-08-19T03:01:29;28.77;;;18.35;;
73675;SDS011;61975;48.660;10.164;2022-08-19T03:03:56;28.50;;;19.73;;
73675;SDS011;61975;48.660;10.164;2022-08-19T03:06:23;25.52;;;18.23;;
73675;SDS011;61975;48.660;10.164;2022-08-19T03:08:49;27.08;;;18.30;;
73675;SDS011;61975;48.660;10.164;2022-08-19T03:11:22;27.73;;;18.60;;
73675;SDS011;61975;48.660;10.164;2022-08-19T03:13:53;27.75;;;18.35;;
73675;SDS011;61975;48.660;10.164;2022-08-19T03:16:19;28.13;;;18.77;;
73675;SDS011;61975;48.660;10.164;2022-08-19T03:18:47;27.42;;;18.08;;
73675;SDS011;61975;48.660;10.164;2022-08-19T03:21:16;26.20;;;17.10;;
73675;SDS011;61975;48.660;10.164;2022-08-19T03:23:42;26.23;;;18.13;;
73675;SDS011;61975;48.660;10.164;2022-08-19T03:26:09;25.73;;;17.75;;
73675;SDS011;61975;48.660;10.164;2022-08-19T03:28:34;26.63;;;18.17;;
73675;SDS011;61975;48.660;10.164;2022-08-19T03:31:01;27.30;;;17.93;;
73675;SDS011;61975;48.660;10.164;2022-08-19T03:33:29;27.20;;;17.75;;
73675;SDS011;61975;48.660;10.164;2022-08-19T03:36:14;25.85;;;18.02;;
73675;SDS011;61975;48.660;10.164;2022-08-19T03:38:49;25.88;;;17.23;;
73675;SDS011;61975;48.660;10.164;2022-08-19T03:41:20;26.35;;;17.70;;
73675;SDS011;61975;48.660;10.164;2022-08-19T03:43:47;26.17;;;18.27;;
73675;SDS011;61975;48.660;10.164;2022-08-19T03:46:17;26.95;;;18.15;;
73675;SDS011;61975;48.660;10.164;2022-08-19T03:48:48;28.63;;;18.67;;
73675;SDS011;61975;48.660;10.164;2022-08-19T03:51:26;27.77;;;17.60;;
73675;SDS011;61975;48.660;10.164;2022-08-19T03:53:54;28.20;;;18.25;;
73675;SDS011;61975;48.660;10.164;2022-08-19T03:56:20;28.67;;;18.00;;
73675;SDS011;61975;48.660;10.164;2022-08-19T03:58:47;28.58;;;17.48;;
73675;SDS011;61975;48.660;10.164;2022-08-19T04:01:14;28.38;;;18.25;;
73675;SDS011;61975;48.660;10.164;2022-08-19T04:03:42;27.47;;;17.20;;
73675;SDS011;61975;48.660;10.164;2022-08-19T04:06:19;30.00;;;18.48;;
73675;SDS011;61975;48.660;10.164;2022-08-19T04:08:47;27.30;;;17.83;;
73675;SDS011;61975;48.660;10.164;2022-08-19T04:11:28;26.40;;;18.60;;
73675;SDS011;61975;48.660;10.164;2022-08-19T04:13:56;27.02;;;18.90;;
73675;SDS011;61975;48.660;10.164;2022-08-19T04:16:23;27.77;;;18.17;;
73675;SDS011;61975;48.660;10.164;2022-08-19T04:18:50;28.13;;;18.42;;
73675;SDS011;61975;48.660;10.164;2022-08-19T04:21:20;28.00;;;18.20;;
73675;SDS011;61975;48.660;10.164;2022-08-19T04:23:47;27.88;;;18.05;;
73675;SDS011;61975;48.660;10.164;2022-08-19T04:26:13;28.63;;;18.63;;
73675;SDS011;61975;48.660;10.164;2022-08-19T04:28:41;27.13;;;18.40;;
73675;SDS011;61975;48.660;10.164;2022-08-19T04:31:12;27.90;;;18.38;;
73675;SDS011;61975;48.660;10.164;2022-08-19T04:33:39;29.13;;;18.13;;
73675;SDS011;61975;48.660;10.164;2022-08-19T04:36:04;28.45;;;18.73;;
73675;SDS011;61975;48.660;10.164;2022-08-19T04:38:30;28.97;;;18.63;;
73675;SDS011;61975;48.660;10.164;2022-08-19T04:40:55;26.17;;;17.97;;
73675;SDS011;61975;48.660;10.164;2022-08-19T04:43:39;31.45;;;19.40;;
73675;SDS011;61975;48.660;10.164;2022-08-19T04:46:09;27.87;;;17.90;;
73675;SDS011;61975;48.660;10.164;2022-08-19T04:48:37;27.77;;;18.10;;
73675;SDS011;61975;48.660;10.164;2022-08-19T04:51:05;29.02;;;18.35;;
73675;SDS011;61975;48.660;10.164;2022-08-19T04:53:34;27.42;;;17.83;;
73675;SDS011;61975;48.660;10.164;2022-08-19T04:56:04;26.25;;;17.20;;
73675;SDS011;61975;48.660;10.164;2022-08-19T04:58:35;28.90;;;17.97;;
73675;SDS011;61975;48.660;10.164;2022-08-19T05:01:01;30.67;;;18.77;;
73675;SDS011;61975;48.660;10.164;2022-08-19T05:03:27;29.90;;;18.70;;
73675;SDS011;61975;48.660;10.164;2022-08-19T05:05:58;27.53;;;18.07;;
73675;SDS011;61975;48.660;10.164;2022-08-19T05:08:30;28.92;;;19.08;;
73675;SDS011;61975;48.660;10.164;2022-08-19T05:10:55;28.63;;;18.53;;
73675;SDS011;61975;48.660;10.164;2022-08-19T05:13:22;28.98;;;18.52;;
73675;SDS011;61975;48.660;10.164;2022-08-19T05:15:55;29.13;;;19.27;;
73675;SDS011;61975;48.660;10.164;2022-08-19T05:18:22;27.48;;;18.25;;
73675;SDS011;61975;48.660;10.164;2022-08-19T05:21:07;29.90;;;19.02;;
73675;SDS011;61975;48.660;10.164;2022-08-19T05:23:53;28.27;;;17.83;;
73675;SDS011;61975;48.660;10.164;2022-08-19T05:26:18;27.95;;;18.10;;
73675;SDS011;61975;48.660;10.164;2022-08-19T05:28:44;31.60;;;18.93;;
73675;SDS011;61975;48.660;10.164;2022-08-19T05:31:09;30.67;;;18.37;;
73675;SDS011;61975;48.660;10.164;2022-08-19T05:33:35;30.25;;;18.67;;
73675;SDS011;61975;48.660;10.164;2022-08-19T05:36:01;30.23;;;19.17;;
73675;SDS011;61975;48.660;10.164;2022-08-19T05:38:27;30.02;;;18.90;;
73675;SDS011;61975;48.660;10.164;2022-08-19T05:40:55;29.87;;;18.53;;
73675;SDS011;61975;48.660;10.164;2022-08-19T05:43:20;27.85;;;18.95;;
73675;SDS011;61975;48.660;10.164;2022-08-19T05:45:46;30.27;;;19.27;;
73675;SDS011;61975;48.660;10.164;2022-08-19T05:48:11;30.10;;;18.30;;
73675;SDS011;61975;48.660;10.164;2022-08-19T05:50:38;30.17;;;19.05;;
73675;SDS011;61975;48.660;10.164;2022-08-19T05:53:05;31.23;;;18.60;;
73675;SDS011;61975;48.660;10.164;2022-08-19T05:55:31;30.20;;;18.47;;
73675;SDS011;61975;48.660;10.164;2022-08-19T05:57:57;30.33;;;19.10;;
73675;SDS011;61975;48.660;10.164;2022-08-19T06:00:23;29.70;;;18.33;;
73675;SDS011;61975;48.660;10.164;2022-08-19T06:02:49;31.23;;;18.77;;
73675;SDS011;61975;48.660;10.164;2022-08-19T06:05:16;29.55;;;18.08;;
73675;SDS011;61975;48.660;10.164;2022-08-19T06:07:41;31.83;;;18.33;;
73675;SDS011;61975;48.660;10.164;2022-08-19T06:10:07;31.47;;;18.40;;
73675;SDS011;61975;48.660;10.164;2022-08-19T06:12:35;31.58;;;19.40;;
73675;SDS011;61975;48.660;10.164;2022-08-19T06:15:02;29.43;;;18.60;;
73675;SDS011;61975;48.660;10.164;2022-08-19T06:17:30;32.15;;;18.90;;
73675;SDS011;61975;48.660;10.164;2022-08-19T06:19:56;33.20;;;19.15;;
73675;SDS011;61975;48.660;10.164;2022-08-19T06:22:22;30.37;;;18.50;;
73675;SDS011;61975;48.660;10.164;2022-08-19T06:24:47;31.45;;;19.13;;
73675;SDS011;61975;48.660;10.164;2022-08-19T06:27:17;33.80;;;18.87;;
73675;SDS011;61975;48.660;10.164;2022-08-19T06:29:43;33.00;;;19.70;;
73675;SDS011;61975;48.660;10.164;2022-08-19T06:32:08;33.87;;;19.10;;
73675;SDS011;61975;48.660;10.164;2022-08-19T06:34:34;30.53;;;18.37;;
73675;SDS011;61975;48.660;10.164;2022-08-19T06:37:00;32.35;;;19.10;;
73675;SDS011;61975;48.660;10.164;2022-08-19T06:39:27;31.83;;;18.50;;
73675;SDS011;61975;48.660;10.164;2022-08-19T06:41:58;31.90;;;18.58;;
73675;SDS011;61975;48.660;10.164;2022-08-19T06:44:26;33.00;;;18.40;;
73675;SDS011;61975;48.660;10.164;2022-08-19T06:46:53;30.13;;;19.50;;
73675;SDS011;61975;48.660;10.164;2022-08-19T06:49:20;30.25;;;18.85;;
73675;SDS011;61975;48.660;10.164;2022-08-19T06:51:46;31.67;;;18.95;;
73675;SDS011;61975;48.660;10.164;2022-08-19T06:54:13;31.77;;;18.45;;
73675;SDS011;61975;48.660;10.164;2022-08-19T06:56:41;32.40;;;18.88;;
73675;SDS011;61975;48.660;10.164;2022-08-19T06:59:08;29.53;;;17.93;;
73675;SDS011;61975;48.660;10.164;2022-08-19T07:01:36;29.45;;;18.02;;
73675;SDS011;61975;48.660;10.164;2022-08-19T07:04:06;32.92;;;19.05;;
73675;SDS011;61975;48.660;10.164;2022-08-19T07:06:33;33.67;;;18.95;;
73675;SDS011;61975;48.660;10.164;2022-08-19T07:08:59;32.22;;;18.70;;
73675;SDS011;61975;48.660;10.164;2022-08-19T07:11:25;31.43;;;18.83;;
73675;SDS011;61975;48.660;10.164;2022-08-19T07:13:51;29.95;;;18.35;;
73675;SDS011;61975;48.660;10.164;2022-08-19T07:16:18;32.13;;;19.00;;
73675;SDS011;61975;48.660;10.164;2022-08-19T07:18:48;33.43;;;18.33;;
73675;SDS011;61975;48.660;10.164;2022-08-19T07:21:22;33.20;;;19.52;;
73675;SDS011;61975;48.660;10.164;2022-08-19T07:23:49;34.67;;;19.90;;
73675;SDS011;61975;48.660;10.164;2022-08-19T07:26:24;31.85;;;18.95;;
73675;SDS011;61975;48.660;10.164;2022-08-19T07:28:51;33.35;;;18.73;;
73675;SDS011;61975;48.660;10.164;2022-08-19T07:31:21;33.40;;;18.87;;
73675;SDS011;61975;48.660;10.164;2022-08-19T07:33:49;31.92;;;18.92;;
73675;SDS011;61975;48.660;10.164;2022-08-19T07:36:17;31.92;;;19.30;;
73675;SDS011;61975;48.660;10.164;2022-08-19T07:38:46;32.55;;;19.45;;
73675;SDS011;61975;48.660;10.164;2022-08-19T07:41:15;32.58;;;19.40;;
73675;SDS011;61975;48.660;10.164;2022-08-19T07:43:47;31.40;;;18.60;;
73675;SDS011;61975;48.660;10.164;2022-08-19T07:46:13;31.45;;;19.55;;
73675;SDS011;61975;48.660;10.164;2022-08-19T07:48:40;32.63;;;19.70;;
73675;SDS011;61975;48.660;10.164;2022-08-19T07:51:09;32.65;;;19.73;;
73675;SDS011;61975;48.660;10.164;2022-08-19T07:53:36;30.77;;;18.88;;
73675;SDS011;61975;48.660;10.164;2022-08-19T07:56:03;32.03;;;19.13;;
73675;SDS011;61975;48.660;10.164;2022-08-19T07:58:34;33.65;;;19.63;;
73675;SDS011;61975;48.660;10.164;2022-08-19T08:01:02;30.55;;;19.30;;
73675;SDS011;61975;48.660;10.164;2022-08-19T08:03:29;31.05;;;18.90;;
73675;SDS011;61975;48.660;10.164;2022-08-19T08:06:13;31.92;;;19.38;;
73675;SDS011;61975;48.660;10.164;2022-08-19T08:08:57;32.03;;;19.07;;
73675;SDS011;61975;48.660;10.164;2022-08-19T08:11:36;33.35;;;19.83;;
73675;SDS011;61975;48.660;10.164;2022-08-19T08:14:05;33.75;;;21.02;;
73675;SDS011;61975;48.660;10.164;2022-08-19T08:16:37;32.03;;;19.80;;
73675;SDS011;61975;48.660;10.164;2022-08-19T08:19:04;32.90;;;19.30;;
73675;SDS011;61975;48.660;10.164;2022-08-19T08:21:31;34.40;;;19.90;;
73675;SDS011;61975;48.660;10.164;2022-08-19T08:23:57;30.92;;;19.50;;
73675;SDS011;61975;48.660;10.164;2022-08-19T08:26:23;35.60;;;21.13;;
73675;SDS011;61975;48.660;10.164;2022-08-19T08:28:50;32.13;;;20.02;;
73675;SDS011;61975;48.660;10.164;2022-08-19T08:31:16;32.72;;;20.52;;
73675;SDS011;61975;48.660;10.164;2022-08-19T08:33:44;33.65;;;20.27;;
73675;SDS011;61975;48.660;10.164;2022-08-19T08:36:10;33.43;;;20.07;;
73675;SDS011;61975;48.660;10.164;2022-08-19T08:38:38;31.48;;;19.48;;
73675;SDS011;61975;48.660;10.164;2022-08-19T08:41:10;31.58;;;19.52;;
73675;SDS011;61975;48.660;10.164;2022-08-19T08:43:45;32.88;;;20.00;;
73675;SDS011;61975;48.660;10.164;2022-08-19T08:51:32;32.55;;;18.90;;
73675;SDS011;61975;48.660;10.164;2022-08-19T08:54:07;32.50;;;19.63;;
73675;SDS011;61975;48.660;10.164;2022-08-19T08:56:35;31.33;;;19.38;;
73675;SDS011;61975;48.660;10.164;2022-08-19T08:59:04;30.05;;;19.90;;
73675;SDS011;61975;48.660;10.164;2022-08-19T09:01:35;31.83;;;19.63;;
73675;SDS011;61975;48.660;10.164;2022-08-19T09:04:02;31.45;;;20.10;;
73675;SDS011;61975;48.660;10.164;2022-08-19T09:09:10;29.83;;;18.83;;
73675;SDS011;61975;48.660;10.164;2022-08-19T09:17:06;31.92;;;19.77;;
73675;SDS011;61975;48.660;10.164;2022-08-19T09:19:55;30.13;;;19.08;;
73675;SDS011;61975;48.660;10.164;2022-08-19T09:22:22;35.00;;;19.92;;
73675;SDS011;61975;48.660;10.164;2022-08-19T09:24:49;30.80;;;19.30;;
73675;SDS011;61975;48.660;10.164;2022-08-19T09:27:17;31.93;;;20.00;;
73675;SDS011;61975;48.660;10.164;2022-08-19T09:29:44;34.75;;;19.98;;
73675;SDS011;61975;48.660;10.164;2022-08-19T09:32:09;31.20;;;20.10;;
73675;SDS011;61975;48.660;10.164;2022-08-19T09:34:35;34.17;;;20.92;;
73675;SDS011;61975;48.660;10.164;2022-08-19T09:37:00;33.20;;;20.47;;
73675;SDS011;61975;48.660;10.164;2022-08-19T09:39:26;32.10;;;19.90;;
73675;SDS011;61975;48.660;10.164;2022-08-19T09:41:51;33.42;;;19.92;;
73675;SDS011;61975;48.660;10.164;2022-08-19T09:44:18;33.20;;;20.52;;
73675;SDS011;61975;48.660;10.164;2022-08-19T09:46:45;33.83;;;20.90;;
73675;SDS011;61975;48.660;10.164;2022-08-19T09:49:15;31.75;;;20.45;;
73675;SDS011;61975;48.660;10.164;2022-08-19T09:51:42;33.63;;;20.98;;
73675;SDS011;61975;48.660;10.164;2022-08-19T09:54:07;33.67;;;21.07;;
73675;SDS011;61975;48.660;10.164;2022-08-19T09:56:33;34.15;;;20.38;;
73675;SDS011;61975;48.660;10.164;2022-08-19T09:58:59;33.10;;;19.97;;
73675;SDS011;61975;48.660;10.164;2022-08-19T10:01:26;34.80;;;20.50;;
73675;SDS011;61975;48.660;10.164;2022-08-19T10:03:54;35.05;;;21.05;;
73675;SDS011;61975;48.660;10.164;2022-08-19T10:06:21;34.67;;;20.50;;
73675;SDS011;61975;48.660;10.164;2022-08-19T10:08:48;34.67;;;20.52;;
73675;SDS011;61975;48.660;10.164;2022-08-19T10:11:14;34.63;;;20.50;;
73675;SDS011;61975;48.660;10.164;2022-08-19T10:13:42;35.75;;;21.80;;
73675;SDS011;61975;48.660;10.164;2022-08-19T10:16:14;35.58;;;21.83;;
73675;SDS011;61975;48.660;10.164;2022-08-19T10:18:42;34.17;;;21.27;;
73675;SDS011;61975;48.660;10.164;2022-08-19T10:21:18;36.27;;;21.57;;
73675;SDS011;61975;48.660;10.164;2022-08-19T10:23:47;36.03;;;21.10;;
73675;SDS011;61975;48.660;10.164;2022-08-19T10:26:16;34.78;;;21.23;;
73675;SDS011;61975;48.660;10.164;2022-08-19T10:28:44;37.00;;;22.52;;
73675;SDS011;61975;48.660;10.164;2022-08-19T10:31:11;34.93;;;21.50;;
73675;SDS011;61975;48.660;10.164;2022-08-19T10:33:38;35.13;;;21.25;;
73675;SDS011;61975;48.660;10.164;2022-08-19T10:36:06;35.33;;;22.25;;
73675;SDS011;61975;48.660;10.164;2022-08-19T10:38:36;36.53;;;22.42;;
73675;SDS011;61975;48.660;10.164;2022-08-19T10:41:09;35.97;;;21.47;;
73675;SDS011;61975;48.660;10.164;2022-08-19T10:43:40;36.38;;;21.38;;
73675;SDS011;61975;48.660;10.164;2022-08-19T10:46:08;34.70;;;21.67;;
73675;SDS011;61975;48.660;10.164;2022-08-19T10:48:35;34.58;;;21.73;;
73675;SDS011;61975;48.660;10.164;2022-08-19T10:51:01;35.20;;;21.67;;
73675;SDS011;61975;48.660;10.164;2022-08-19T10:53:45;34.67;;;21.10;;
73675;SDS011;61975;48.660;10.164;2022-08-19T10:56:10;35.90;;;21.70;;
73675;SDS011;61975;48.660;10.164;2022-08-19T10:58:54;34.20;;;21.38;;
73675;SDS011;61975;48.660;10.164;2022-08-19T11:01:21;37.03;;;22.38;;
73675;SDS011;61975;48.660;10.164;2022-08-19T11:03:47;36.17;;;21.90;;
73675;SDS011;61975;48.660;10.164;2022-08-19T11:06:12;34.30;;;21.17;;
73675;SDS011;61975;48.660;10.164;2022-08-19T11:08:38;35.03;;;21.42;;
73675;SDS011;61975;48.660;10.164;2022-08-19T11:11:04;33.37;;;21.40;;
73675;SDS011;61975;48.660;10.164;2022-08-19T11:13:31;32.13;;;20.90;;
73675;SDS011;61975;48.660;10.164;2022-08-19T11:16:01;35.92;;;21.63;;
73675;SDS011;61975;48.660;10.164;2022-08-19T11:18:39;37.33;;;21.33;;
73675;SDS011;61975;48.660;10.164;2022-08-19T11:21:13;33.77;;;21.17;;
73675;SDS011;61975;48.660;10.164;2022-08-19T11:23:42;30.85;;;20.00;;
73675;SDS011;61975;48.660;10.164;2022-08-19T11:26:08;31.50;;;19.65;;
73675;SDS011;61975;48.660;10.164;2022-08-19T11:28:35;32.03;;;20.30;;
73675;SDS011;61975;48.660;10.164;2022-08-19T11:31:00;31.55;;;20.10;;
73675;SDS011;61975;48.660;10.164;2022-08-19T11:33:28;30.20;;;19.73;;
73675;SDS011;61975;48.660;10.164;2022-08-19T11:35:56;31.40;;;19.55;;
73675;SDS011;61975;48.660;10.164;2022-08-19T11:38:23;29.92;;;18.02;;
73675;SDS011;61975;48.660;10.164;2022-08-19T11:40:58;32.50;;;19.60;;
73675;SDS011;61975;48.660;10.164;2022-08-19T11:43:25;31.42;;;19.13;;
73675;SDS011;61975;48.660;10.164;2022-08-19T11:45:52;33.15;;;19.80;;
73675;SDS011;61975;48.660;10.164;2022-08-19T11:48:18;30.52;;;19.60;;
73675;SDS011;61975;48.660;10.164;2022-08-19T11:50:47;31.40;;;18.97;;
73675;SDS011;61975;48.660;10.164;2022-08-19T11:53:18;29.08;;;18.92;;
73675;SDS011;61975;48.660;10.164;2022-08-19T11:55:45;29.58;;;19.13;;
73675;SDS011;61975;48.660;10.164;2022-08-19T11:58:12;28.10;;;19.35;;
73675;SDS011;61975;48.660;10.164;2022-08-19T12:00:39;28.40;;;18.05;;
73675;SDS011;61975;48.660;10.164;2022-08-19T12:03:04;27.47;;;17.50;;
73675;SDS011;61975;48.660;10.164;2022-08-19T12:05:30;24.98;;;16.17;;
73675;SDS011;61975;48.660;10.164;2022-08-19T12:07:56;26.53;;;16.60;;
73675;SDS011;61975;48.660;10.164;2022-08-19T12:10:21;24.67;;;16.40;;
73675;SDS011;61975;48.660;10.164;2022-08-19T12:12:47;25.20;;;16.08;;
73675;SDS011;61975;48.660;10.164;2022-08-19T12:15:13;25.05;;;15.55;;
73675;SDS011;61975;48.660;10.164;2022-08-19T12:17:39;24.02;;;15.27;;
73675;SDS011;61975;48.660;10.164;2022-08-19T12:20:07;19.60;;;13.67;;
73675;SDS011;61975;48.660;10.164;2022-08-19T12:22:34;18.77;;;12.30;;
73675;SDS011;61975;48.660;10.164;2022-08-19T12:25:00;18.33;;;11.70;;
73675;SDS011;61975;48.660;10.164;2022-08-19T12:27:26;17.20;;;11.87;;
73675;SDS011;61975;48.660;10.164;2022-08-19T12:29:51;17.50;;;11.60;;
73675;SDS011;61975;48.660;10.164;2022-08-19T12:32:17;15.90;;;10.80;;
73675;SDS011;61975;48.660;10.164;2022-08-19T12:34:42;13.50;;;9.10;;
73675;SDS011;61975;48.660;10.164;2022-08-19T12:37:08;12.90;;;8.70;;
73675;SDS011;61975;48.660;10.164;2022-08-19T12:39:35;13.02;;;8.85;;
73675;SDS011;61975;48.660;10.164;2022-08-19T12:42:02;13.15;;;9.18;;
73675;SDS011;61975;48.660;10.164;2022-08-19T12:44:28;13.63;;;9.35;;
73675;SDS011;61975;48.660;10.164;2022-08-19T12:46:55;13.90;;;9.30;;
73675;SDS011;61975;48.660;10.164;2022-08-19T12:49:21;13.17;;;9.37;;
73675;SDS011;61975;48.660;10.164;2022-08-19T12:51:47;13.70;;;9.57;;
73675;SDS011;61975;48.660;10.164;2022-08-19T12:54:12;14.83;;;9.97;;
73675;SDS011;61975;48.660;10.164;2022-08-19T12:56:38;15.30;;;9.57;;
73675;SDS011;61975;48.660;10.164;2022-08-19T12:59:04;15.07;;;10.03;;
73675;SDS011;61975;48.660;10.164;2022-08-19T13:01:29;17.65;;;11.90;;
73675;SDS011;61975;48.660;10.164;2022-08-19T13:03:57;17.40;;;11.90;;
73675;SDS011;61975;48.660;10.164;2022-08-19T13:06:24;17.58;;;12.40;;
73675;SDS011;61975;48.660;10.164;2022-08-19T13:08:51;18.02;;;12.65;;
73675;SDS011;61975;48.660;10.164;2022-08-19T13:11:18;18.80;;;12.80;;
73675;SDS011;61975;48.660;10.164;2022-08-19T13:13:46;17.52;;;12.38;;
73675;SDS011;61975;48.660;10.164;2022-08-19T13:16:14;16.30;;;11.82;;
73675;SDS011;61975;48.660;10.164;2022-08-19T13:18:41;16.77;;;11.20;;
73675;SDS011;61975;48.660;10.164;2022-08-19T13:21:08;16.10;;;11.40;;
73675;SDS011;61975;48.660;10.164;2022-08-19T13:23:37;16.75;;;12.40;;
73675;SDS011;61975;48.660;10.164;2022-08-19T13:26:04;15.13;;;10.32;;
73675;SDS011;61975;48.660;10.164;2022-08-19T13:28:31;13.73;;;10.00;;
73675;SDS011;61975;48.660;10.164;2022-08-19T13:31:16;12.23;;;9.07;;
73675;SDS011;61975;48.660;10.164;2022-08-19T13:34:02;12.43;;;8.88;;
73675;SDS011;61975;48.660;10.164;2022-08-19T13:36:28;12.65;;;8.75;;
73675;SDS011;61975;48.660;10.164;2022-08-19T13:38:54;10.90;;;7.40;;
73675;SDS011;61975;48.660;10.164;2022-08-19T13:41:19;9.95;;;7.43;;
73675;SDS011;61975;48.660;10.164;2022-08-19T13:43:44;9.40;;;7.03;;
73675;SDS011;61975;48.660;10.164;2022-08-19T13:46:11;10.52;;;6.47;;
73675;SDS011;61975;48.660;10.164;2022-08-19T13:48:39;8.82;;;6.63;;
73675;SDS011;61975;48.660;10.164;2022-08-19T13:51:06;10.73;;;7.33;;
73675;SDS011;61975;48.660;10.164;2022-08-19T13:53:34;9.32;;;6.50;;
73675;SDS011;61975;48.660;10.164;2022-08-19T13:56:04;13.35;;;7.90;;
73675;SDS011;61975;48.660;10.164;2022-08-19T13:58:30;10.10;;;6.78;;
73675;SDS011;61975;48.660;10.164;2022-08-19T14:00:56;9.93;;;6.73;;
73675;SDS011;61975;48.660;10.164;2022-08-19T14:03:22;9.05;;;6.68;;
73675;SDS011;61975;48.660;10.164;2022-08-19T14:05:48;9.35;;;6.13;;
73675;SDS011;61975;48.660;10.164;2022-08-19T14:08:14;8.83;;;6.50;;
73675;SDS011;61975;48.660;10.164;2022-08-19T14:10:40;10.77;;;6.80;;
73675;SDS011;61975;48.660;10.164;2022-08-19T14:13:05;10.60;;;6.70;;
73675;SDS011;61975;48.660;10.164;2022-08-19T14:15:31;9.67;;;7.17;;
73675;SDS011;61975;48.660;10.164;2022-08-19T14:17:56;11.40;;;7.57;;
73675;SDS011;61975;48.660;10.164;2022-08-19T14:20:22;11.13;;;7.93;;
73675;SDS011;61975;48.660;10.164;2022-08-19T14:22:48;10.07;;;7.45;;
73675;SDS011;61975;48.660;10.164;2022-08-19T14:25:19;11.18;;;8.35;;
73675;SDS011;61975;48.660;10.164;2022-08-19T14:27:46;12.10;;;8.02;;
73675;SDS011;61975;48.660;10.164;2022-08-19T14:30:14;12.10;;;7.93;;